Time;durP1;ratioP1;P1;durP2;ratioP2;P2;SDS_P1;SDS_P2;PMS_P1;PMS_P2;Temp;Humidity;BMP_temperature;BMP_pressure;BME280_temperature;BME280_humidity;BME280_pressure;Samples;Min_cycle;Max_cycle;Signal;HPM_P1;HPM_P2
2022/08/12 00:43:29;;;;;;;5.20;3.70;;;19.20;99.90;;;;;;5115293;28;20246;-74
2022/08/12 00:48:41;;;;;;;4.00;3.60;;;19.20;99.90;;;;;;5115234;28;20274;-76
2022/08/12 00:51:10;;;;;;;4.40;3.70;;;19.20;99.90;;;;;;5115426;28;20707;-76
2022/08/12 00:53:38;;;;;;;4.47;3.60;;;19.10;99.90;;;;;;5115252;28;20195;-76
2022/08/12 00:56:07;;;;;;;8.27;3.30;;;19.00;99.90;;;;;;5115083;28;20234;-76
2022/08/12 00:58:35;;;;;;;6.23;3.60;;;19.00;99.90;;;;;;5115488;28;20278;-76
2022/08/12 01:01:06;;;;;;;6.40;3.83;;;18.90;99.90;;;;;;5115313;28;20225;-76
2022/08/12 01:11:49;;;;;;;6.50;3.47;;;18.90;99.90;;;;;;5114995;28;20197;-76
2022/08/12 01:14:22;;;;;;;4.97;3.47;;;18.90;99.90;;;;;;5114978;28;20250;-76
2022/08/12 01:16:51;;;;;;;6.13;4.00;;;18.80;99.90;;;;;;5114525;28;20221;-73
2022/08/12 01:19:23;;;;;;;4.03;3.73;;;18.80;99.90;;;;;;5114089;28;20237;-73
2022/08/12 01:22:12;;;;;;;7.57;3.60;;;18.70;99.90;;;;;;5114480;28;20201;-73
2022/08/12 01:25:03;;;;;;;5.83;3.97;;;18.70;99.90;;;;;;5114473;28;20209;-73
2022/08/12 01:27:34;;;;;;;7.07;3.80;;;18.60;99.90;;;;;;5114072;28;20237;-74
2022/08/12 01:30:05;;;;;;;4.10;3.70;;;18.60;99.90;;;;;;5114422;28;20237;-73
2022/08/12 01:32:36;;;;;;;4.30;3.70;;;18.50;99.90;;;;;;5113869;28;20201;-74
2022/08/12 01:35:07;;;;;;;5.17;3.73;;;18.40;99.90;;;;;;5114366;28;20237;-73
2022/08/12 01:37:37;;;;;;;5.23;4.00;;;18.40;99.90;;;;;;5114350;27;20307;-73
2022/08/12 01:40:08;;;;;;;4.53;3.80;;;18.40;99.90;;;;;;5114763;28;20210;-73
2022/08/12 01:42:44;;;;;;;4.77;3.37;;;18.30;99.90;;;;;;5114360;28;20333;-73
2022/08/12 01:45:12;;;;;;;4.17;3.60;;;18.10;99.90;;;;;;5114135;28;20213;-73
2022/08/12 01:47:55;;;;;;;7.07;3.60;;;18.10;99.90;;;;;;5106197;28;20300;-74
2022/08/12 01:50:47;;;;;;;4.10;3.70;;;18.00;99.90;;;;;;5107018;28;20292;-73
2022/08/12 01:53:14;;;;;;;5.63;3.70;;;18.00;99.90;;;;;;5112972;28;20273;-73
2022/08/12 01:55:46;;;;;;;4.63;3.57;;;17.90;99.90;;;;;;5107709;28;20222;-73
2022/08/12 01:58:27;;;;;;;4.97;3.60;;;17.80;99.90;;;;;;5093171;28;20313;-73
2022/08/12 02:01:00;;;;;;;6.17;3.90;;;17.70;99.90;;;;;;5093342;28;20202;-73
2022/08/12 02:12:53;;;;;;;6.17;4.00;;;17.60;99.90;;;;;;5093460;28;20221;-73
2022/08/12 02:15:27;;;;;;;6.83;3.57;;;17.60;99.90;;;;;;5092954;28;20202;-73
2022/08/12 02:18:19;;;;;;;4.37;3.70;;;17.60;99.90;;;;;;5093437;28;20225;-73
2022/08/12 02:20:53;;;;;;;9.70;4.10;;;17.60;99.90;;;;;;5093363;28;20229;-73
2022/08/12 02:23:26;;;;;;;6.70;4.00;;;17.60;99.90;;;;;;5093215;28;20202;-74
2022/08/12 02:25:58;;;;;;;6.00;4.03;;;17.60;99.90;;;;;;5092703;28;20202;-73
2022/08/12 02:28:27;;;;;;;6.77;4.03;;;17.50;99.90;;;;;;5093120;28;20194;-73
2022/08/12 02:31:01;;;;;;;4.37;3.87;;;17.50;99.90;;;;;;5092680;28;20678;-73
2022/08/12 02:33:28;;;;;;;4.40;4.00;;;17.50;99.90;;;;;;5093197;28;20230;-73
2022/08/12 02:35:56;;;;;;;5.63;3.80;;;17.40;99.90;;;;;;5093293;28;20210;-73
2022/08/12 02:38:26;;;;;;;5.57;3.70;;;17.40;99.90;;;;;;5092989;28;20264;-74
2022/08/12 02:40:55;;;;;;;4.63;3.90;;;17.40;99.90;;;;;;5093053;28;20635;-73
2022/08/12 02:43:33;;;;;;;5.30;3.73;;;17.40;99.90;;;;;;5092977;28;20238;-73
2022/08/12 02:46:03;;;;;;;4.03;3.73;;;17.40;99.90;;;;;;5092490;28;20237;-73
2022/08/12 02:48:35;;;;;;;4.10;3.70;;;17.30;99.90;;;;;;5093115;28;20261;-73
2022/08/12 02:51:08;;;;;;;4.50;3.70;;;17.20;99.90;;;;;;5092809;28;20210;-73
2022/08/12 02:53:37;;;;;;;4.73;4.07;;;17.10;99.90;;;;;;5092842;28;20317;-73
2022/08/12 02:56:05;;;;;;;4.47;4.07;;;17.00;99.90;;;;;;5092621;28;20325;-73
2022/08/12 02:58:35;;;;;;;4.60;4.20;;;16.90;99.90;;;;;;5092892;28;20323;-73
2022/08/12 03:01:06;;;;;;;4.73;4.00;;;16.80;99.90;;;;;;5092238;28;20311;-73
2022/08/12 03:03:34;;;;;;;4.30;3.90;;;16.70;99.90;;;;;;5092468;28;20199;-73
2022/08/12 03:06:05;;;;;;;5.37;4.23;;;16.60;99.90;;;;;;5092837;28;20206;-73
2022/08/12 03:08:42;;;;;;;6.53;4.70;;;16.60;99.90;;;;;;5092469;28;20730;-73
2022/08/12 03:11:16;;;;;;;5.87;4.63;;;16.50;99.90;;;;;;5092945;28;20198;-73
2022/08/12 03:13:47;;;;;;;6.67;4.60;;;16.50;99.90;;;;;;5092113;28;20202;-73
2022/08/12 03:16:14;;;;;;;6.27;4.23;;;16.40;99.90;;;;;;5092439;28;20234;-73
2022/08/12 03:18:42;;;;;;;6.00;4.50;;;16.40;99.90;;;;;;5092682;28;20229;-73
2022/08/12 03:21:12;;;;;;;6.03;4.40;;;16.40;99.90;;;;;;5092304;28;20209;-73
2022/08/12 03:23:41;;;;;;;5.20;4.20;;;16.30;99.90;;;;;;5092578;28;20206;-73
2022/08/12 03:26:08;;;;;;;4.83;4.13;;;16.30;99.90;;;;;;5092721;28;20206;-73
2022/08/12 03:28:52;;;;;;;4.67;4.27;;;16.30;99.90;;;;;;5090717;28;20729;-73
2022/08/12 03:31:23;;;;;;;4.80;4.40;;;16.30;99.90;;;;;;5092301;28;20204;-73
2022/08/12 03:33:51;;;;;;;6.40;3.80;;;16.30;99.90;;;;;;5092752;28;20194;-73
2022/08/12 03:36:20;;;;;;;5.53;4.20;;;16.20;99.90;;;;;;5092649;28;20289;-73
2022/08/12 03:39:14;;;;;;;8.07;4.33;;;16.30;99.90;;;;;;5095546;28;20228;-73
2022/08/12 03:41:40;;;;;;;8.67;4.63;;;16.20;99.90;;;;;;5095417;28;20205;-73
2022/08/12 04:00:47;;;;;;;5.87;5.37;;;15.60;99.90;;;;;;5095717;28;20696;-73
2022/08/12 04:06:00;;;;;;;7.20;5.67;;;15.50;99.90;;;;;;5095637;28;20332;-73
2022/08/12 04:08:27;;;;;;;5.90;5.40;;;15.50;99.90;;;;;;5095834;28;20297;-73
2022/08/12 04:13:40;;;;;;;6.80;5.83;;;15.50;99.90;;;;;;5095596;28;20332;-73
2022/08/12 04:16:09;;;;;;;12.00;5.70;;;15.40;99.90;;;;;;5095521;28;20596;-73
2022/08/12 04:18:39;;;;;;;7.93;5.87;;;15.50;99.90;;;;;;5095536;28;20690;-73
2022/08/12 04:21:09;;;;;;;7.70;6.50;;;15.40;99.90;;;;;;5095425;28;20297;-73
2022/08/12 04:23:37;;;;;;;7.13;6.27;;;15.40;99.90;;;;;;5095666;28;20209;-73
2022/08/12 04:26:05;;;;;;;8.37;6.00;;;15.30;99.90;;;;;;5095098;28;20209;-73
2022/08/12 04:28:33;;;;;;;6.73;5.53;;;15.30;99.90;;;;;;5095392;28;20288;-73
2022/08/12 04:31:03;;;;;;;6.73;5.70;;;15.30;99.90;;;;;;5095268;28;20229;-73
2022/08/12 04:33:33;;;;;;;6.37;5.77;;;15.30;99.90;;;;;;5095052;28;20202;-73
2022/08/12 04:36:03;;;;;;;6.90;5.80;;;15.30;99.90;;;;;;5095226;28;20285;-73
2022/08/12 04:38:33;;;;;;;8.50;6.20;;;15.30;99.90;;;;;;5095072;28;20289;-73
2022/08/12 04:41:00;;;;;;;7.87;6.00;;;15.30;99.90;;;;;;5094682;28;20203;-73
2022/08/12 04:43:28;;;;;;;8.33;5.53;;;15.30;99.90;;;;;;5095008;28;20233;-73
2022/08/12 04:45:55;;;;;;;6.70;5.70;;;15.30;99.90;;;;;;5095231;28;20289;-73
2022/08/12 04:48:22;;;;;;;6.87;5.50;;;15.20;99.90;;;;;;5094549;28;20812;-73
2022/08/12 04:50:49;;;;;;;6.67;5.83;;;15.30;99.90;;;;;;5102492;28;20293;-73
2022/08/12 04:53:19;;;;;;;8.47;6.00;;;15.30;99.90;;;;;;5115393;27;20194;-73
2022/08/12 04:55:46;;;;;;;9.23;6.23;;;15.30;99.90;;;;;;5114688;28;20327;-73
2022/08/12 04:58:13;;;;;;;10.70;6.03;;;15.30;99.90;;;;;;5115080;28;20218;-73
2022/08/12 05:00:40;;;;;;;9.80;6.03;;;15.30;99.90;;;;;;5115159;28;20549;-73
2022/08/12 05:03:07;;;;;;;7.57;5.77;;;15.30;99.90;;;;;;5114947;28;20229;-73
2022/08/12 05:05:35;;;;;;;6.93;6.10;;;15.20;99.90;;;;;;5114887;28;20237;-73
2022/08/12 05:08:10;;;;;;;8.10;5.80;;;15.20;99.90;;;;;;5114909;28;20717;-73
2022/08/12 05:10:39;;;;;;;6.00;5.50;;;15.20;99.90;;;;;;5114740;28;20235;-73
2022/08/12 05:13:09;;;;;;;8.80;5.87;;;15.30;99.90;;;;;;5115083;28;20280;-73
2022/08/12 05:15:39;;;;;;;6.50;5.90;;;15.40;99.90;;;;;;5115066;28;20201;-73
2022/08/12 05:18:06;;;;;;;8.60;6.00;;;15.40;99.90;;;;;;5114793;28;20221;-73
2022/08/12 05:20:34;;;;;;;7.47;5.77;;;15.50;99.90;;;;;;5114935;28;20240;-73
2022/08/12 05:23:08;;;;;;;6.00;5.40;;;15.50;99.90;;;;;;5114706;28;20194;-73
2022/08/12 05:25:35;;;;;;;5.93;5.33;;;15.60;99.90;;;;;;5114296;28;20197;-73
2022/08/12 05:28:05;;;;;;;6.87;5.63;;;15.70;99.90;;;;;;5114669;28;20248;-73
2022/08/12 05:30:33;;;;;;;6.53;5.37;;;15.80;99.90;;;;;;5114390;28;20569;-73
2022/08/12 05:33:04;;;;;;;5.83;5.33;;;16.00;99.90;;;;;;5114346;28;20232;-73
2022/08/12 05:35:31;;;;;;;7.20;5.47;;;16.30;99.90;;;;;;5114582;28;20198;-73
2022/08/12 05:40:38;;;;;;;7.17;5.10;;;17.00;99.90;;;;;;5114216;28;20197;-73
2022/08/12 05:43:10;;;;;;;8.40;5.20;;;17.50;99.90;;;;;;5114161;28;20748;-73
2022/08/12 05:45:37;;;;;;;5.83;5.23;;;17.80;99.90;;;;;;5114411;28;20637;-73
2022/08/12 05:48:05;;;;;;;5.50;4.90;;;18.10;99.90;;;;;;5114025;28;20316;-73
2022/08/12 05:50:32;;;;;;;6.07;4.67;;;18.50;99.90;;;;;;5114136;28;20209;-73
2022/08/12 05:52:59;;;;;;;5.17;4.77;;;19.00;99.90;;;;;;5113618;28;20254;-73
2022/08/12 05:55:26;;;;;;;5.47;4.67;;;19.50;99.90;;;;;;5113753;28;20282;-73
2022/08/12 05:57:54;;;;;;;4.90;4.50;;;19.90;99.90;;;;;;5114038;28;20316;-73
2022/08/12 06:00:24;;;;;;;7.68;4.47;;;20.50;99.90;;;;;;5113400;28;20206;-73
2022/08/12 06:02:52;;;;;;;5.47;4.35;;;21.00;99.90;;;;;;5114101;28;20247;-73
2022/08/12 06:05:19;;;;;;;5.68;4.35;;;21.40;99.90;;;;;;5113930;28;20234;-73
2022/08/12 06:07:48;;;;;;;5.20;4.70;;;21.90;99.90;;;;;;5113489;28;20237;-73
2022/08/12 06:10:16;;;;;;;7.82;4.30;;;22.40;99.90;;;;;;5113472;28;20227;-73
2022/08/12 06:12:48;;;;;;;9.60;4.72;;;22.90;99.90;;;;;;5113456;28;20699;-73
2022/08/12 06:15:15;;;;;;;5.82;4.57;;;23.40;99.90;;;;;;5113617;28;20206;-73
2022/08/12 06:17:44;;;;;;;5.35;4.00;;;23.60;99.90;;;;;;5113338;28;20202;-73
2022/08/12 06:20:14;;;;;;;5.95;4.55;;;24.20;99.90;;;;;;5113251;28;20237;-73
2022/08/12 06:22:42;;;;;;;7.65;4.55;;;24.70;99.90;;;;;;5113360;28;20251;-73
2022/08/12 06:25:09;;;;;;;4.75;4.22;;;25.30;99.90;;;;;;5113497;28;20233;-73
2022/08/12 06:27:42;;;;;;;6.80;4.63;;;26.00;92.70;;;;;;5113478;28;20285;-73
2022/08/12 06:30:10;;;;;;;4.40;4.00;;;26.30;81.40;;;;;;5113286;28;20225;-73
2022/08/12 06:32:39;;;;;;;6.50;4.10;;;26.50;77.40;;;;;;5113360;28;20284;-73
2022/08/12 06:35:09;;;;;;;6.50;4.10;;;27.30;62.50;;;;;;5113354;28;20201;-74
2022/08/12 06:37:40;;;;;;;4.20;3.80;;;27.90;48.50;;;;;;5112064;28;20338;-73
2022/08/12 06:40:10;;;;;;;6.40;4.13;;;28.00;41.80;;;;;;5113262;28;20201;-74
2022/08/12 06:42:47;;;;;;;4.65;3.72;;;27.50;43.80;;;;;;5113375;28;20233;-73
2022/08/12 06:45:14;;;;;;;6.80;4.30;;;28.40;33.30;;;;;;5113249;28;20677;-73
2022/08/12 06:47:41;;;;;;;11.68;4.70;;;28.70;27.90;;;;;;5113050;28;20204;-74
2022/08/12 06:50:14;;;;;;;6.25;4.55;;;29.40;20.60;;;;;;5112974;28;20260;-74
2022/08/12 06:52:41;;;;;;;5.03;4.10;;;29.50;16.60;;;;;;5112677;28;20198;-76
2022/08/12 06:55:12;;;;;;;5.90;4.30;;;29.80;11.00;;;;;;5113536;28;20261;-76
2022/08/12 06:57:54;;;;;;;7.68;3.90;;;29.50;12.70;;;;;;5113389;28;20217;-77
2022/08/12 07:00:22;;;;;;;7.13;3.65;;;30.30;9.80;;;;;;5113448;28;20193;-77
2022/08/12 07:02:50;;;;;;;6.40;3.67;;;31.00;4.40;;;;;;5113413;28;20204;-76
2022/08/12 07:05:23;;;;;;;5.30;3.65;;;31.50;1.00;;;;;;5112845;28;20204;-77
2022/08/12 07:08:06;;;;;;;6.20;3.75;;;31.90;1.00;;;;;;5113244;28;20590;-77
2022/08/12 07:10:39;;;;;;;8.60;3.72;;;32.00;1.00;;;;;;5111098;28;20288;-77
2022/08/12 07:13:07;;;;;;;5.72;3.60;;;31.90;1.00;;;;;;5117378;28;20284;-77
2022/08/12 07:15:36;;;;;;;4.63;3.72;;;32.80;1.00;;;;;;5117278;27;20209;-76
2022/08/12 07:18:06;;;;;;;4.80;3.50;;;33.40;1.00;;;;;;5117703;28;20611;-77
2022/08/12 07:20:35;;;;;;;6.05;3.80;;;33.30;1.00;;;;;;5116958;28;20552;-77
2022/08/12 07:23:05;;;;;;;7.22;3.30;;;33.00;1.00;;;;;;5117352;28;20193;-77
2022/08/12 07:25:34;;;;;;;8.38;3.55;;;33.10;1.00;;;;;;5117252;28;20235;-77
2022/08/12 07:28:03;;;;;;;6.97;3.63;;;33.40;1.00;;;;;;5117342;28;20201;-77
2022/08/12 07:30:33;;;;;;;6.40;3.40;;;34.30;1.00;;;;;;5116845;28;20204;-74
2022/08/12 07:33:03;;;;;;;5.05;3.90;;;34.20;1.00;;;;;;5116899;28;20197;-74
2022/08/12 07:35:32;;;;;;;5.80;3.22;;;34.30;1.00;;;;;;5116679;28;20247;-74
2022/08/12 07:38:01;;;;;;;5.72;3.20;;;34.60;1.00;;;;;;5117214;28;20199;-74
2022/08/12 07:40:30;;;;;;;5.65;3.42;;;35.20;1.00;;;;;;5116746;28;20661;-73
2022/08/12 07:42:57;;;;;;;4.05;3.10;;;35.50;1.00;;;;;;5116774;28;20201;-74
2022/08/12 07:45:24;;;;;;;8.23;3.50;;;35.70;1.00;;;;;;5115363;28;20238;-74
2022/08/12 07:47:51;;;;;;;6.55;3.17;;;35.40;1.00;;;;;;5116675;28;20201;-75
2022/08/12 07:50:20;;;;;;;8.32;3.40;;;35.20;1.00;;;;;;5112508;28;20301;-74
2022/08/12 07:52:48;;;;;;;3.38;3.08;;;35.20;1.00;;;;;;5095730;28;20285;-74
2022/08/12 07:55:18;;;;;;;5.45;3.10;;;35.10;1.00;;;;;;5095815;28;20238;-74
2022/08/12 07:57:51;;;;;;;5.55;3.13;;;35.00;1.00;;;;;;5095394;28;20221;-75
2022/08/12 08:00:18;;;;;;;7.38;3.30;;;34.30;1.00;;;;;;5095845;28;20202;-74
2022/08/12 08:02:45;;;;;;;4.57;3.20;;;34.60;1.00;;;;;;5095850;28;20297;-74
2022/08/12 08:05:17;;;;;;;5.13;3.17;;;34.80;1.00;;;;;;5095519;28;20225;-75
2022/08/12 08:07:44;;;;;;;4.13;3.05;;;34.20;1.00;;;;;;5095813;28;20868;-73
2022/08/12 08:10:12;;;;;;;6.60;3.40;;;35.20;1.00;;;;;;5095941;28;20261;-74
2022/08/12 08:12:57;;;;;;;3.50;3.20;;;35.80;1.00;;;;;;5095966;28;20198;-74
2022/08/12 08:15:26;;;;;;;4.25;3.10;;;35.40;1.00;;;;;;5095587;28;20673;-74
2022/08/12 08:17:58;;;;;;;5.00;3.20;;;35.60;1.00;;;;;;5095542;28;20233;-74
2022/08/12 08:20:28;;;;;;;5.47;3.55;;;35.90;1.00;;;;;;5095870;28;20213;-74
2022/08/12 08:22:56;;;;;;;4.93;2.92;;;36.00;1.00;;;;;;5094675;28;20214;-74
2022/08/12 08:25:29;;;;;;;4.10;3.38;;;35.90;1.00;;;;;;5095685;28;20225;-74
2022/08/12 08:27:59;;;;;;;5.88;2.97;;;36.10;1.00;;;;;;5095341;28;20280;-74
2022/08/12 08:30:27;;;;;;;4.82;3.10;;;36.30;1.00;;;;;;5095495;28;20239;-74
2022/08/12 08:32:55;;;;;;;3.35;2.97;;;36.80;1.00;;;;;;5094989;28;20236;-74
2022/08/12 08:35:22;;;;;;;5.05;3.30;;;37.10;1.00;;;;;;5095421;28;20202;-74
2022/08/12 08:37:50;;;;;;;3.60;2.83;;;37.20;1.00;;;;;;5095135;28;20205;-76
2022/08/12 08:43:06;;;;;;;7.05;3.25;;;36.70;1.00;;;;;;5095346;28;20258;-75
2022/08/12 08:45:33;;;;;;;4.57;2.92;;;37.30;1.00;;;;;;5095439;28;20216;-76
2022/08/12 08:48:01;;;;;;;3.47;3.00;;;37.70;1.00;;;;;;5094892;28;20558;-76
2022/08/12 08:50:28;;;;;;;4.93;3.00;;;37.90;1.00;;;;;;5099755;28;20700;-75
2022/08/12 08:52:55;;;;;;;5.50;3.17;;;37.80;1.00;;;;;;5115536;28;20227;-76
2022/08/12 08:55:22;;;;;;;3.33;3.03;;;38.70;1.00;;;;;;5115387;28;20264;-76
2022/08/12 08:57:54;;;;;;;4.57;2.90;;;37.60;1.00;;;;;;5115425;28;20263;-78
2022/08/12 09:00:22;;;;;;;4.50;3.15;;;37.50;1.00;;;;;;5115209;28;20308;-78
2022/08/12 09:02:49;;;;;;;6.22;2.97;;;37.30;1.00;;;;;;5115149;28;20231;-75
2022/08/12 09:05:17;;;;;;;4.57;2.97;;;37.70;1.00;;;;;;5113965;28;20266;-72
2022/08/12 09:07:46;;;;;;;5.70;2.90;;;37.80;1.00;;;;;;5114809;28;20200;-73
2022/08/12 09:10:18;;;;;;;3.20;2.90;;;38.10;1.00;;;;;;5114914;28;20221;-72
2022/08/12 09:15:31;;;;;;;4.70;2.90;;;37.30;1.00;;;;;;5115204;28;20193;-74
2022/08/12 09:17:59;;;;;;;5.00;3.00;;;37.30;1.00;;;;;;5114611;27;20238;-75
2022/08/12 09:20:27;;;;;;;4.40;2.88;;;38.30;1.00;;;;;;5115022;28;20264;-74
2022/08/12 09:22:55;;;;;;;4.43;2.80;;;38.20;1.00;;;;;;5115031;28;20627;-74
2022/08/12 09:25:24;;;;;;;3.80;3.10;;;37.60;1.00;;;;;;5114837;28;20213;-77
2022/08/12 09:27:52;;;;;;;4.13;2.60;;;37.00;1.00;;;;;;5115140;27;20197;-77
2022/08/12 09:30:20;;;;;;;4.25;2.92;;;37.40;1.00;;;;;;5114396;28;20225;-77
2022/08/12 09:32:50;;;;;;;4.07;2.95;;;38.00;1.00;;;;;;5114686;28;20970;-77
2022/08/12 09:35:20;;;;;;;3.85;2.75;;;38.10;1.00;;;;;;5113468;28;20667;-77
2022/08/12 09:37:48;;;;;;;3.67;3.10;;;39.10;1.00;;;;;;5114867;28;20288;-75
2022/08/12 09:40:16;;;;;;;3.38;2.53;;;38.60;1.00;;;;;;5114204;28;20700;-74
2022/08/12 09:45:30;;;;;;;3.33;2.90;;;36.90;1.00;;;;;;5113875;28;20235;-75
2022/08/12 09:48:00;;;;;;;4.97;2.70;;;38.70;1.00;;;;;;5114462;28;20263;-75
2022/08/12 09:50:28;;;;;;;4.88;2.85;;;39.00;1.00;;;;;;5114153;28;20201;-75
2022/08/12 09:53:05;;;;;;;4.30;2.90;;;39.30;1.00;;;;;;5114056;28;20310;-75
2022/08/12 09:55:32;;;;;;;5.75;2.85;;;37.70;1.00;;;;;;5113865;28;20266;-74
2022/08/12 09:58:00;;;;;;;5.88;3.25;;;38.30;1.00;;;;;;5114252;28;20635;-74
2022/08/12 10:00:27;;;;;;;3.35;2.60;;;37.60;1.00;;;;;;5113786;28;20225;-74
2022/08/12 10:03:05;;;;;;;3.63;3.00;;;37.90;1.00;;;;;;5113838;28;20278;-75
2022/08/12 10:05:35;;;;;;;3.58;3.10;;;37.30;1.00;;;;;;5114042;28;20280;-75
2022/08/12 10:08:02;;;;;;;3.25;2.85;;;37.50;1.00;;;;;;5114068;28;20204;-74
2022/08/12 10:10:29;;;;;;;4.55;3.00;;;37.90;1.00;;;;;;5113998;28;20220;-75
2022/08/12 10:15:45;;;;;;;3.25;2.78;;;37.70;1.00;;;;;;5113335;28;20188;-74
2022/08/12 10:18:14;;;;;;;6.90;3.10;;;37.30;1.00;;;;;;5113314;28;20201;-75
2022/08/12 10:20:41;;;;;;;5.53;3.05;;;37.00;1.00;;;;;;5113674;28;20225;-74
2022/08/12 10:23:08;;;;;;;4.43;3.05;;;36.70;1.00;;;;;;5113727;28;20237;-74
2022/08/12 10:31:06;;;;;;;3.53;3.10;;;36.50;1.00;;;;;;5113248;28;20274;-74
2022/08/12 10:33:35;;;;;;;5.20;2.80;;;36.70;1.00;;;;;;5113259;28;20284;-75
2022/08/12 10:36:03;;;;;;;4.65;3.30;;;37.40;1.00;;;;;;5113457;28;20200;-74
2022/08/12 10:38:30;;;;;;;3.72;3.10;;;37.80;1.00;;;;;;5113353;28;20208;-74
2022/08/12 10:43:42;;;;;;;5.00;3.20;;;37.80;1.00;;;;;;5112763;28;20200;-75
2022/08/12 10:46:16;;;;;;;4.50;2.72;;;38.20;1.00;;;;;;5113073;28;20196;-74
2022/08/12 10:48:50;;;;;;;8.07;3.25;;;38.30;1.00;;;;;;5113253;28;20604;-74
2022/08/12 10:51:17;;;;;;;3.30;3.00;;;38.90;1.00;;;;;;5112610;28;20209;-75
2022/08/12 10:53:45;;;;;;;3.50;3.03;;;38.10;1.00;;;;;;5112565;28;20197;-75
2022/08/12 10:56:13;;;;;;;4.50;3.53;;;37.80;1.00;;;;;;5112638;28;20263;-75
2022/08/12 10:58:41;;;;;;;4.88;3.05;;;39.00;1.00;;;;;;5112485;28;20255;-75
2022/08/12 11:01:09;;;;;;;6.95;2.90;;;38.00;1.00;;;;;;5113517;28;20312;-77
2022/08/12 11:03:37;;;;;;;4.57;3.15;;;38.00;1.00;;;;;;5113327;28;20200;-77
2022/08/12 11:06:07;;;;;;;3.50;2.97;;;37.50;1.00;;;;;;5113283;28;20204;-77
2022/08/12 11:08:36;;;;;;;4.75;3.15;;;38.70;1.00;;;;;;5113108;28;20288;-77
2022/08/12 11:11:04;;;;;;;3.72;2.97;;;38.50;1.00;;;;;;5113115;28;20653;-77
2022/08/12 11:13:31;;;;;;;6.78;3.08;;;38.30;1.00;;;;;;5112673;28;20205;-74
2022/08/12 11:15:58;;;;;;;4.97;3.30;;;38.50;1.00;;;;;;5112948;28;20567;-74
2022/08/12 11:18:25;;;;;;;3.58;3.28;;;38.80;1.00;;;;;;5112850;28;20680;-74
2022/08/12 11:20:55;;;;;;;3.35;3.10;;;38.70;1.00;;;;;;5112927;28;20260;-75
2022/08/12 11:23:25;;;;;;;3.83;2.83;;;39.10;1.00;;;;;;5112717;28;20253;-75
2022/08/12 11:25:52;;;;;;;4.18;3.00;;;39.10;1.00;;;;;;5112991;28;20274;-75
2022/08/12 11:28:19;;;;;;;4.35;3.00;;;37.90;1.00;;;;;;5112561;28;20293;-74
2022/08/12 11:30:46;;;;;;;3.83;3.10;;;37.40;1.00;;;;;;5112320;28;20615;-75
2022/08/12 11:33:13;;;;;;;4.28;2.95;;;37.30;1.00;;;;;;5112730;28;20285;-74
2022/08/12 11:35:42;;;;;;;7.43;3.05;;;38.00;1.00;;;;;;5112576;28;20743;-74
2022/08/12 11:38:09;;;;;;;4.45;3.00;;;38.00;1.00;;;;;;5112809;28;20223;-75
2022/08/12 11:40:38;;;;;;;4.60;3.05;;;38.00;1.00;;;;;;5112928;28;20270;-77
2022/08/12 11:43:05;;;;;;;7.10;3.78;;;39.30;1.00;;;;;;5112637;28;20233;-77
2022/08/12 11:45:32;;;;;;;3.85;3.20;;;39.20;1.00;;;;;;5112601;28;20232;-77
2022/08/12 11:48:01;;;;;;;4.47;3.45;;;39.30;1.00;;;;;;5112434;28;20201;-77
2022/08/12 11:50:28;;;;;;;3.25;2.95;;;38.70;1.00;;;;;;5107930;28;20234;-77
2022/08/12 11:52:56;;;;;;;3.83;3.13;;;39.30;1.00;;;;;;5092211;28;20281;-77
2022/08/12 11:55:26;;;;;;;4.57;3.33;;;37.80;1.00;;;;;;5091830;28;20257;-77
2022/08/12 11:57:56;;;;;;;3.50;3.20;;;38.90;1.00;;;;;;5092560;28;20232;-77
2022/08/12 12:00:26;;;;;;;4.75;3.08;;;38.70;1.00;;;;;;5095959;28;20276;-74
2022/08/12 12:02:53;;;;;;;4.25;3.20;;;38.70;1.00;;;;;;5095745;28;20202;-75
2022/08/12 12:05:20;;;;;;;4.53;3.10;;;38.50;1.00;;;;;;5095923;28;20631;-74
2022/08/12 12:07:47;;;;;;;5.10;3.65;;;38.60;1.00;;;;;;5095719;28;20248;-74
2022/08/12 12:10:18;;;;;;;3.40;3.10;;;38.20;1.00;;;;;;5095655;28;20193;-74
2022/08/12 12:12:45;;;;;;;4.35;3.05;;;39.20;1.00;;;;;;5095743;28;20229;-74
2022/08/12 12:15:14;;;;;;;4.40;3.13;;;40.10;1.00;;;;;;5095705;28;20280;-75
2022/08/12 12:17:42;;;;;;;3.58;3.20;;;39.50;1.00;;;;;;5095395;28;20233;-74
2022/08/12 12:20:13;;;;;;;5.97;3.17;;;39.30;1.00;;;;;;5095004;28;20257;-74
2022/08/12 12:22:41;;;;;;;4.57;3.20;;;39.20;1.00;;;;;;5095459;28;20711;-74
2022/08/12 12:25:10;;;;;;;4.63;2.97;;;38.70;1.00;;;;;;5095217;28;20717;-75
2022/08/12 12:27:48;;;;;;;4.15;2.85;;;38.40;1.00;;;;;;5095610;28;20202;-75
2022/08/12 12:30:16;;;;;;;5.32;3.00;;;39.10;1.00;;;;;;5095200;28;20258;-74
2022/08/12 12:32:43;;;;;;;4.45;3.13;;;39.20;1.00;;;;;;5095434;28;20798;-74
2022/08/12 12:35:11;;;;;;;6.55;3.22;;;39.40;1.00;;;;;;5095801;28;20202;-74
2022/08/12 12:38:00;;;;;;;4.80;2.85;;;39.80;1.00;;;;;;5095321;28;20237;-75
2022/08/12 12:40:29;;;;;;;4.80;3.20;;;39.60;1.00;;;;;;5094773;28;20309;-74
2022/08/12 12:42:56;;;;;;;11.88;3.28;;;38.90;1.00;;;;;;5094836;28;20217;-75
2022/08/12 12:45:27;;;;;;;5.40;2.97;;;40.30;1.00;;;;;;5095177;28;20225;-74
2022/08/12 12:47:58;;;;;;;3.25;2.97;;;40.50;1.00;;;;;;5095237;28;20549;-75
2022/08/12 12:50:26;;;;;;;4.95;3.17;;;40.70;1.00;;;;;;5099418;28;20721;-75
2022/08/12 12:52:53;;;;;;;4.75;3.05;;;40.20;1.00;;;;;;5115465;28;20236;-77
2022/08/12 12:55:22;;;;;;;3.50;3.20;;;39.80;1.00;;;;;;5114819;28;20229;-74
2022/08/12 12:57:49;;;;;;;3.83;3.42;;;40.30;1.00;;;;;;5115529;28;20715;-74
2022/08/12 13:00:17;;;;;;;5.53;3.00;;;40.00;1.00;;;;;;5115089;28;20259;-75
2022/08/12 13:02:56;;;;;;;3.17;2.90;;;39.60;1.00;;;;;;5115132;28;20232;-74
2022/08/12 13:05:28;;;;;;;4.00;3.20;;;39.40;1.00;;;;;;5115254;28;20613;-74
2022/08/12 13:07:56;;;;;;;4.03;3.05;;;40.30;1.00;;;;;;5114981;28;20288;-74
2022/08/12 13:10:24;;;;;;;2.83;2.60;;;40.60;1.00;;;;;;5114808;28;20247;-75
2022/08/12 13:12:51;;;;;;;3.45;2.90;;;38.60;1.00;;;;;;5114969;28;20201;-75
2022/08/12 13:15:19;;;;;;;3.95;2.97;;;38.50;1.00;;;;;;5114774;28;20660;-74
2022/08/12 13:17:49;;;;;;;2.90;2.70;;;37.70;1.00;;;;;;5114993;28;20523;-74
2022/08/12 13:20:18;;;;;;;5.18;3.05;;;38.30;1.00;;;;;;5114581;27;20304;-76
2022/08/12 13:22:45;;;;;;;4.30;3.20;;;38.70;1.00;;;;;;5114865;28;20240;-77
2022/08/12 13:25:13;;;;;;;4.93;3.05;;;38.70;1.00;;;;;;5114968;28;20619;-74
2022/08/12 13:27:44;;;;;;;4.55;2.90;;;37.10;1.00;;;;;;5114833;28;20228;-74
2022/08/12 13:30:14;;;;;;;3.30;3.00;;;37.80;1.00;;;;;;5114780;28;20199;-74
2022/08/12 13:32:44;;;;;;;2.95;2.60;;;38.70;1.00;;;;;;5114815;27;20611;-74
2022/08/12 13:35:15;;;;;;;3.25;2.95;;;39.00;1.00;;;;;;5114487;28;20655;-74
2022/08/12 13:37:42;;;;;;;4.13;2.88;;;39.30;1.00;;;;;;5114386;28;20193;-74
2022/08/12 13:40:11;;;;;;;3.13;2.70;;;38.70;1.00;;;;;;5114291;28;20704;-75
2022/08/12 13:42:39;;;;;;;3.50;2.83;;;38.50;1.00;;;;;;5114642;28;20289;-74
2022/08/12 13:45:07;;;;;;;4.43;2.90;;;38.50;1.00;;;;;;5114289;28;20203;-74
2022/08/12 13:47:55;;;;;;;3.17;2.88;;;38.30;1.00;;;;;;5114346;28;20225;-74
2022/08/12 13:50:31;;;;;;;5.80;3.03;;;37.80;1.00;;;;;;5114252;28;20232;-74
2022/08/12 13:53:01;;;;;;;3.75;2.75;;;38.40;1.00;;;;;;5113950;28;20591;-74
2022/08/12 13:55:29;;;;;;;3.85;2.88;;;38.50;1.00;;;;;;5114051;28;20256;-74
2022/08/12 13:57:56;;;;;;;3.30;3.00;;;38.60;1.00;;;;;;5113945;28;20688;-74
2022/08/12 14:00:24;;;;;;;4.72;3.03;;;38.00;1.00;;;;;;5113855;28;20240;-75
2022/08/12 14:02:52;;;;;;;3.47;3.00;;;37.80;1.00;;;;;;5113905;28;20197;-74
2022/08/12 14:05:19;;;;;;;3.08;2.72;;;37.90;1.00;;;;;;5114059;28;20224;-74
2022/08/12 14:07:59;;;;;;;5.68;2.83;;;38.40;1.00;;;;;;5113423;28;20197;-74
2022/08/12 14:10:37;;;;;;;4.05;2.90;;;37.60;1.00;;;;;;5113910;28;20747;-77
2022/08/12 14:13:06;;;;;;;3.88;3.05;;;37.20;1.00;;;;;;5113891;28;20201;-74
2022/08/12 14:15:34;;;;;;;4.80;2.78;;;38.30;1.00;;;;;;5113764;28;20703;-74
2022/08/12 14:18:15;;;;;;;5.85;3.13;;;38.80;1.00;;;;;;5113579;28;20240;-74
2022/08/12 14:20:43;;;;;;;3.20;2.80;;;39.00;1.00;;;;;;5112580;28;20304;-74
2022/08/12 14:23:12;;;;;;;3.17;2.60;;;38.80;1.00;;;;;;5113719;28;20201;-74
2022/08/12 14:25:40;;;;;;;3.13;2.92;;;38.30;1.00;;;;;;5113672;28;20673;-74
2022/08/12 14:28:10;;;;;;;4.75;3.17;;;38.10;1.00;;;;;;5113763;28;20303;-74
2022/08/12 14:30:42;;;;;;;3.53;2.90;;;39.00;1.00;;;;;;5114057;28;20208;-74
2022/08/12 14:33:09;;;;;;;5.47;2.97;;;38.00;1.00;;;;;;5113458;28;20288;-74
2022/08/12 14:35:36;;;;;;;3.45;2.90;;;38.00;1.00;;;;;;5113323;28;20201;-74
2022/08/12 14:38:14;;;;;;;3.28;2.97;;;38.20;1.00;;;;;;5113357;28;20233;-74
2022/08/12 14:40:42;;;;;;;6.07;2.60;;;38.00;1.00;;;;;;5113270;28;20227;-74
2022/08/12 14:43:09;;;;;;;5.65;2.80;;;38.70;1.00;;;;;;5113439;28;20644;-74
2022/08/12 14:45:36;;;;;;;6.70;2.95;;;38.00;1.00;;;;;;5113295;28;20201;-74
2022/08/12 14:48:05;;;;;;;4.53;3.00;;;37.70;1.00;;;;;;5113071;28;20691;-77
2022/08/12 14:50:32;;;;;;;6.45;3.00;;;38.40;1.00;;;;;;5112912;28;20258;-77
2022/08/12 14:52:59;;;;;;;4.50;3.15;;;37.40;1.00;;;;;;5113324;28;20280;-77